• Join FlightAware (Why Join?)
  • Login
  • US Flag 
03:17PM EDT


 

Airport Tracker/Info


-or-


 

Live Flight TrackerFlight Track Log ✈ C-GHVM ✈ 26-May-2013 ✈ CYLW - CYPK

Flight Track Log - Related Links

Times and Time Zones

All times are in EDT time to prevent confusion due to time zone crossing. See the C-GHVM flight status page for this flight to view local times or setup timezone preferences in your user account.

Time Position Orientation Groundspeed Altitude Reporting Facility
EDT Latitude Longitude Course Direction KTS MPH feet Rate Location/Type
07:12PM 49.9333 -119.3667 360° North 10 12 1,300  Level Vancouver Center
07:13PM 49.9333 -119.3667 360° North 20 23 1,400  Climbing Vancouver Center
07:14PM 49.9500 -119.3667 360° North 20 23 1,400  Level Vancouver Center
07:15PM 49.9500 -119.3667 360° North 10 12 1,400  Level Vancouver Center
07:16PM 49.9333 -119.3667 180° South 50 58 1,400 600 Level Vancouver Center
07:17PM 49.9000 -119.3667 180° South 120 138 2,700 1,380 Climbing Vancouver Center
07:18PM 49.8667 -119.3667 180° South 120 138 4,200 1,140 Climbing Vancouver Center
07:19PM 49.8500 -119.4167 243° Southwest 140 161 5,000 840 Climbing Vancouver Center
07:20PM 49.8333 -119.5000 253° West 160 184 5,900 900 Climbing Vancouver Center
07:21PM 49.8167 -119.5500 243° Southwest 170 196 6,800 960 Climbing Vancouver Center
07:22PM 49.7833 -119.5833 213° Southwest 160 184 7,900 1,020 Climbing Vancouver Center
07:23PM 49.7500 -119.6333 224° Southwest 160 184 8,900 960 Climbing Vancouver Center
07:24PM 49.7000 -119.6667 203° Southwest 160 184 9,900 960 Climbing Vancouver Center
07:25PM 49.6500 -119.7000 203° Southwest 160 184 10,900 900 Climbing Vancouver Center
07:26PM 49.6167 -119.7333 213° Southwest 160 184 11,700 480 Climbing Vancouver Center
07:27PM 49.6167 -119.8000 270° West 190 219 11,900 60 Climbing Vancouver Center
07:28PM 49.6000 -119.8833 253° West 190 219 11,900 120 Level Vancouver Center
07:29PM 49.6167 -119.9833 284° West 200 230 12,200 360 Climbing Vancouver Center
07:30PM 49.6167 -120.0667 270° West 190 219 12,700 420 Climbing Vancouver Center
07:31PM 49.6000 -120.1167 243° Southwest 180 207 13,100 480 Climbing Vancouver Center
07:32PM 49.6000 -120.2000 270° West 180 207 13,700 540 Climbing Vancouver Center
07:33PM 49.6000 -120.2667 270° West 180 207 14,200 480 Climbing Vancouver Center
07:34PM 49.5833 -120.3500 253° West 180 207 14,700 480 Climbing Vancouver Center
07:35PM 49.5833 -120.4333 270° West 180 207 15,200 600 Climbing Vancouver Center
07:36PM 49.5833 -120.5000 270° West 180 207 15,900 480 Climbing Vancouver Center
07:37PM 49.5833 -120.5833 270° West 180 207 16,200 60 Climbing Vancouver Center
07:38PM 49.5833 -120.6500 270° West 190 219 16,100 -60 Descending Vancouver Center
07:39PM 49.5833 -120.7667 270° West 200 230 16,100  Level Vancouver Center
07:40PM 49.5667 -120.8333 249° West 200 230 16,100  Level Vancouver Center
07:41PM 49.5667 -120.9167 270° West 200 230 16,100  Level Vancouver Center
07:42PM 49.5667 -121.0167 270° West 200 230 16,100  Level Vancouver Center
07:43PM 49.5500 -121.1000 253° West 200 230 16,100  Level Vancouver Center
07:44PM 49.5667 -121.1667 291° West 200 230 16,100  Level Vancouver Center
07:45PM 49.5500 -121.2500 253° West 200 230 16,100  Level Vancouver Center
07:46PM 49.5500 -121.3500 270° West 200 230 16,100  Level Vancouver Center
07:47PM 49.5500 -121.4333 270° West 200 230 16,100 -60 Level Vancouver Center
07:48PM 49.5333 -121.5167 253° West 200 230 16,000 -300 Descending Vancouver Center
07:49PM 49.5333 -121.6167 270° West 200 230 15,500 -480 Descending Vancouver Center
07:50PM 49.5167 -121.6833 249° West 200 230 15,100 -240 Descending Vancouver Center
07:51PM 49.5167 -121.7667 270° West 180 207 15,100  Level Vancouver Center
07:52PM 49.5167 -121.8500 270° West 170 196 15,100  Level Vancouver Center
07:53PM 49.5000 -121.9000 243° Southwest 170 196 15,100 -60 Level Vancouver Center
07:54PM 49.5000 -121.9667 270° West 170 196 15,000 -360 Descending Vancouver Center
07:55PM 49.5167 -122.0500 287° West 180 207 14,400 -1,020 Descending Vancouver Center
07:56PM 49.4833 -122.1333 238° Southwest 190 219 13,000 -1,440 Descending Vancouver Center
07:57PM 49.4500 -122.1833 224° Southwest 200 230 11,600 -1,500 Descending Vancouver Center
07:58PM 49.4167 -122.2667 238° Southwest 200 230 10,000 -1,200 Descending Vancouver Center
07:59PM 49.4000 -122.3333 249° West 180 207 9,200 -600 Descending Vancouver Center
08:00PM 49.3667 -122.3667 213° Southwest 150 173 8,900 -660 Descending Vancouver Center
08:01PM 49.3167 -122.4167 213° Southwest 150 173 7,900 -900 Descending Vancouver Center
08:02PM 49.2833 -122.4500 213° Southwest 180 207 7,200 -660 Descending Vancouver Center
08:03PM 49.2500 -122.5000 224° Southwest 170 196 6,600 -900 Descending Vancouver Center
08:04PM 49.2000 -122.5500 213° Southwest 180 207 5,500 -1,080 Descending Vancouver Center
08:05PM 49.1667 -122.5500 180° South 170 196 4,500 -960 Descending Vancouver Center
08:06PM 49.2000 -122.5167 33° Northeast 170 196 3,600 -960 Descending Vancouver Center
08:07PM 49.2000 -122.6000 270° West 170 196 2,600 -1,020 Descending Vancouver Center